Time;durP1;ratioP1;P1;durP2;ratioP2;P2;SDS_P1;SDS_P2;PMS_P1;PMS_P2;Temp;Humidity;BMP_temperature;BMP_pressure;BME280_temperature;BME280_humidity;BME280_pressure;Samples;Min_cycle;Max_cycle;Signal;HPM_P1;HPM_P2
2022/08/30 00:01:23;;;;;;;11.07;8.50;;;;;;;;;;6280998;28;20064;-69
2022/08/30 00:04:25;;;;;;;11.73;7.40;;;;;;;;;;6275300;28;20053;-68
2022/08/30 00:07:27;;;;;;;8.98;7.70;;;;;;;;;;6280145;28;20045;-68
2022/08/30 00:10:30;;;;;;;8.88;7.97;;;;;;;;;;6279618;28;20056;-68
2022/08/30 00:13:31;;;;;;;;;;;;;;;;;;6281015;28;20247;-72
2022/08/30 00:16:33;;;;;;;10.35;8.38;;;;;;;;;;6279487;28;19917;-68
2022/08/30 00:19:34;;;;;;;11.18;9.27;;;;;;;;;;6279054;28;20046;-69
2022/08/30 00:22:36;;;;;;;12.07;9.13;;;;;;;;;;6278914;28;20090;-67
2022/08/30 00:25:39;;;;;;;10.18;8.50;;;;;;;;;;6280074;28;20340;-67
2022/08/30 00:28:42;;;;;;;10.98;7.68;;;;;;;;;;6278553;28;20082;-67
2022/08/30 00:31:43;;;;;;;9.23;7.37;;;;;;;;;;6278850;28;20103;-66
2022/08/30 00:34:45;;;;;;;9.25;8.35;;;;;;;;;;6280056;28;20463;-68
2022/08/30 00:37:47;;;;;;;9.77;8.27;;;;;;;;;;6281682;28;20060;-69
2022/08/30 00:40:51;;;;;;;11.90;6.47;;;;;;;;;;6278829;28;20294;-69
2022/08/30 00:43:53;;;;;;;9.02;7.43;;;;;;;;;;6279780;28;20374;-68
2022/08/30 00:46:55;;;;;;;9.15;7.78;;;;;;;;;;6279403;28;20040;-66
2022/08/30 00:49:57;;;;;;;8.63;7.80;;;;;;;;;;6279296;28;20045;-69
2022/08/30 00:53:01;;;;;;;8.85;6.97;;;;;;;;;;6279042;28;20053;-68
2022/08/30 00:56:05;;;;;;;9.73;7.72;;;;;;;;;;6278799;28;20057;-69
2022/08/30 00:59:08;;;;;;;8.50;7.40;;;;;;;;;;6277934;28;20065;-69
2022/08/30 01:02:10;;;;;;;9.48;7.00;;;;;;;;;;6280376;28;20044;-67
2022/08/30 01:05:12;;;;;;;15.38;7.72;;;;;;;;;;6279976;28;20078;-67
2022/08/30 01:08:15;;;;;;;13.20;7.00;;;;;;;;;;6279635;28;20107;-68
2022/08/30 01:11:20;;;;;;;9.02;7.85;;;;;;;;;;6279162;28;20122;-68
2022/08/30 01:14:22;;;;;;;8.20;7.30;;;;;;;;;;6277402;28;20053;-67
2022/08/30 01:17:25;;;;;;;12.95;7.80;;;;;;;;;;6279874;28;20098;-70
2022/08/30 01:20:31;;;;;;;11.93;7.82;;;;;;;;;;6280060;28;20097;-69
2022/08/30 01:23:35;;;;;;;8.35;7.55;;;;;;;;;;6279127;28;20049;-69
2022/08/30 01:26:37;;;;;;;11.85;8.23;;;;;;;;;;6276788;28;20056;-70
2022/08/30 01:29:38;;;;;;;10.93;8.32;;;;;;;;;;6277722;28;20094;-67
2022/08/30 01:32:44;;;;;;;13.20;9.85;;;;;;;;;;6281284;28;20055;-66
2022/08/30 01:35:48;;;;;;;9.60;8.25;;;;;;;;;;6278336;28;20099;-68
2022/08/30 01:38:53;;;;;;;10.63;9.40;;;;;;;;;;6278485;28;20116;-68
2022/08/30 01:41:54;;;;;;;11.35;10.15;;;;;;;;;;6277290;28;20068;-67
2022/08/30 01:44:56;;;;;;;12.80;9.93;;;;;;;;;;6280210;28;20142;-67
2022/08/30 01:47:58;;;;;;;11.80;10.05;;;;;;;;;;6276784;28;20053;-67
2022/08/30 01:50:59;;;;;;;14.70;11.25;;;;;;;;;;6277789;28;20112;-68
2022/08/30 01:54:02;;;;;;;14.70;11.98;;;;;;;;;;6274618;28;20465;-65
2022/08/30 01:57:04;;;;;;;12.25;10.75;;;;;;;;;;6281510;28;20107;-65
2022/08/30 02:00:09;;;;;;;12.60;11.03;;;;;;;;;;6274827;28;20053;-66
2022/08/30 02:03:11;;;;;;;12.05;9.48;;;;;;;;;;6278492;28;20400;-67
2022/08/30 02:06:15;;;;;;;13.98;10.63;;;;;;;;;;6277348;28;20045;-67
2022/08/30 02:09:17;;;;;;;13.32;11.25;;;;;;;;;;6277863;28;20044;-65
2022/08/30 02:12:19;;;;;;;12.20;10.50;;;;;;;;;;6278813;28;20094;-69
2022/08/30 02:15:21;;;;;;;13.18;9.85;;;;;;;;;;6277567;28;20057;-68
2022/08/30 02:18:24;;;;;;;11.88;9.82;;;;;;;;;;6277774;28;20065;-70
2022/08/30 02:21:26;;;;;;;;;;;;;;;;;;6279835;28;20075;-68
2022/08/30 02:24:29;;;;;;;11.98;9.57;;;;;;;;;;6282553;28;19928;-68
2022/08/30 02:27:31;;;;;;;10.70;9.60;;;;;;;;;;6280803;28;20037;-67
2022/08/30 02:30:32;;;;;;;11.82;10.10;;;;;;;;;;6281289;28;20098;-65
2022/08/30 02:33:34;;;;;;;11.65;10.45;;;;;;;;;;6282976;28;20102;-67
2022/08/30 02:36:35;;;;;;;14.68;11.68;;;;;;;;;;6278069;28;20087;-65
2022/08/30 02:39:39;;;;;;;14.65;11.13;;;;;;;;;;6276912;28;20045;-68
2022/08/30 02:42:41;;;;;;;11.85;10.60;;;;;;;;;;6280596;28;20044;-66
2022/08/30 02:45:42;;;;;;;12.00;10.23;;;;;;;;;;6279052;28;20324;-69
2022/08/30 02:48:44;;;;;;;18.10;11.45;;;;;;;;;;6277174;28;20076;-68
2022/08/30 02:51:46;;;;;;;12.10;10.73;;;;;;;;;;6273610;28;20052;-66
2022/08/30 02:54:49;;;;;;;12.70;10.57;;;;;;;;;;6274706;28;20882;-68
2022/08/30 02:57:50;;;;;;;;;;;;;;;;;;6269962;28;20057;-67
2022/08/30 03:00:52;;;;;;;15.55;11.52;;;;;;;;;;6278393;28;19916;-66
2022/08/30 03:03:53;;;;;;;17.52;12.55;;;;;;;;;;6275216;28;20063;-67
2022/08/30 03:06:55;;;;;;;13.82;11.55;;;;;;;;;;6278588;28;20091;-66
2022/08/30 03:09:58;;;;;;;14.85;11.98;;;;;;;;;;6276862;28;20231;-67
2022/08/30 03:13:00;;;;;;;13.32;10.38;;;;;;;;;;6280342;28;20053;-66
2022/08/30 03:16:02;;;;;;;16.02;10.93;;;;;;;;;;6279249;28;20338;-66
2022/08/30 03:19:03;;;;;;;20.67;11.32;;;;;;;;;;6279045;28;20064;-66
2022/08/30 03:22:06;;;;;;;12.65;9.77;;;;;;;;;;6273780;28;20394;-67
2022/08/30 03:25:09;;;;;;;13.18;10.88;;;;;;;;;;6274866;28;20057;-67
2022/08/30 03:28:11;;;;;;;13.07;10.80;;;;;;;;;;6273590;28;20251;-66
2022/08/30 03:31:13;;;;;;;12.20;10.87;;;;;;;;;;6277815;28;20049;-66
2022/08/30 03:34:15;;;;;;;13.88;11.52;;;;;;;;;;6277297;28;20052;-65
2022/08/30 03:37:17;;;;;;;12.70;11.40;;;;;;;;;;6273873;28;20107;-65
2022/08/30 03:40:21;;;;;;;16.88;13.15;;;;;;;;;;6274618;28;20052;-66
2022/08/30 03:43:23;;;;;;;14.73;12.25;;;;;;;;;;6274895;28;20102;-66
2022/08/30 03:46:25;;;;;;;13.48;12.07;;;;;;;;;;6274932;28;20067;-65
2022/08/30 03:49:26;;;;;;;14.10;12.70;;;;;;;;;;6275219;28;20705;-66
2022/08/30 03:52:28;;;;;;;15.88;13.38;;;;;;;;;;6274194;28;20204;-65
2022/08/30 03:55:31;;;;;;;15.65;13.05;;;;;;;;;;6275161;28;20064;-66
2022/08/30 03:58:33;;;;;;;;;;;;;;;;;;6274870;28;20095;-66
2022/08/30 04:01:34;;;;;;;16.42;13.80;;;;;;;;;;6275122;28;20006;-66
2022/08/30 04:04:36;;;;;;;15.20;13.60;;;;;;;;;;6275735;28;20331;-68
2022/08/30 04:07:38;;;;;;;17.85;15.30;;;;;;;;;;6275421;28;20057;-65
2022/08/30 04:10:41;;;;;;;18.58;16.67;;;;;;;;;;6275920;28;20107;-65
2022/08/30 04:13:43;;;;;;;18.98;16.25;;;;;;;;;;6275196;28;20111;-65
2022/08/30 04:16:45;;;;;;;17.20;15.43;;;;;;;;;;6274424;28;20087;-64
2022/08/30 04:19:46;;;;;;;23.05;18.17;;;;;;;;;;6274332;28;20045;-65
2022/08/30 04:22:48;;;;;;;20.92;17.27;;;;;;;;;;6273146;28;20056;-64
2022/08/30 04:25:51;;;;;;;22.15;18.35;;;;;;;;;;6273837;28;20053;-64
2022/08/30 04:28:53;;;;;;;19.40;16.65;;;;;;;;;;6276159;28;20283;-64
2022/08/30 04:31:55;;;;;;;23.75;17.85;;;;;;;;;;6275147;28;20076;-65
2022/08/30 04:34:57;;;;;;;18.85;16.73;;;;;;;;;;6279887;28;20358;-65
2022/08/30 04:37:59;;;;;;;21.35;16.50;;;;;;;;;;6279726;28;20106;-65
2022/08/30 04:41:02;;;;;;;18.58;16.58;;;;;;;;;;6280097;28;20044;-65
2022/08/30 04:44:04;;;;;;;19.45;15.73;;;;;;;;;;6278464;28;20316;-68
2022/08/30 04:47:08;;;;;;;21.48;17.45;;;;;;;;;;6280917;28;20064;-64
2022/08/30 04:50:12;;;;;;;23.75;18.08;;;;;;;;;;6277767;28;20057;-66
2022/08/30 04:53:14;;;;;;;22.45;19.02;;;;;;;;;;6279888;28;20098;-65
2022/08/30 04:56:21;;;;;;;20.53;16.53;;;;;;;;;;6277344;28;20045;-65
2022/08/30 04:59:22;;;;;;;21.35;17.52;;;;;;;;;;6278137;28;20120;-64
2022/08/30 05:02:24;;;;;;;19.85;16.50;;;;;;;;;;6278257;28;20137;-64
2022/08/30 05:05:41;;;;;;;21.65;16.92;;;;;;;;;;6277693;28;20095;-64
2022/08/30 05:08:43;;;;;;;19.75;17.40;;;;;;;;;;6280556;28;20781;-63
2022/08/30 05:11:46;;;;;;;24.45;17.70;;;;;;;;;;6280928;28;20061;-62
2022/08/30 05:14:48;;;;;;;19.23;17.17;;;;;;;;;;6278385;28;20118;-62
2022/08/30 05:17:49;;;;;;;21.65;19.38;;;;;;;;;;6278672;28;20060;-64
2022/08/30 05:20:51;;;;;;;20.67;18.08;;;;;;;;;;6276646;28;20102;-62
2022/08/30 05:23:54;;;;;;;21.40;19.05;;;;;;;;;;6277374;28;20136;-64
2022/08/30 05:26:57;;;;;;;23.92;21.35;;;;;;;;;;6279395;28;20147;-65
2022/08/30 05:29:59;;;;;;;33.17;21.20;;;;;;;;;;6278004;28;20052;-62
2022/08/30 05:33:00;;;;;;;26.27;22.55;;;;;;;;;;6279626;28;20279;-62
2022/08/30 05:36:06;;;;;;;24.25;21.15;;;;;;;;;;6277997;28;20101;-62
2022/08/30 05:39:08;;;;;;;27.58;22.60;;;;;;;;;;6277384;28;20057;-64
2022/08/30 05:42:11;;;;;;;30.88;23.30;;;;;;;;;;6274407;28;20235;-66
2022/08/30 05:45:14;;;;;;;30.75;25.48;;;;;;;;;;6278689;28;20053;-63
2022/08/30 05:48:15;;;;;;;27.42;23.27;;;;;;;;;;6279172;28;20083;-63
2022/08/30 05:51:19;;;;;;;32.20;24.20;;;;;;;;;;6278252;28;20058;-64
2022/08/30 05:54:21;;;;;;;33.03;25.77;;;;;;;;;;6277658;28;20094;-62
2022/08/30 05:57:24;;;;;;;32.10;26.40;;;;;;;;;;6276519;28;20319;-63
2022/08/30 06:00:25;;;;;;;30.92;25.27;;;;;;;;;;6275599;28;20278;-62
2022/08/30 06:03:27;;;;;;;26.70;23.67;;;;;;;;;;6275217;28;20335;-62
2022/08/30 06:06:30;;;;;;;27.13;22.40;;;;;;;;;;6279645;28;20047;-63
2022/08/30 06:09:32;;;;;;;27.00;23.70;;;;;;;;;;6274261;28;20520;-64
2022/08/30 06:12:35;;;;;;;31.08;24.20;;;;;;;;;;6275806;28;20052;-63
2022/08/30 06:15:37;;;;;;;26.73;23.77;;;;;;;;;;6273319;28;20525;-65
2022/08/30 06:18:38;;;;;;;25.55;22.45;;;;;;;;;;6271879;28;20255;-63
2022/08/30 06:21:41;;;;;;;22.70;20.17;;;;;;;;;;6276203;28;20146;-62
2022/08/30 06:24:43;;;;;;;23.90;20.63;;;;;;;;;;6277749;28;20620;-62
2022/08/30 06:27:46;;;;;;;22.77;20.38;;;;;;;;;;6276962;28;20119;-61
2022/08/30 06:30:47;;;;;;;25.05;20.90;;;;;;;;;;6277731;28;20044;-67
2022/08/30 06:33:49;;;;;;;21.65;19.27;;;;;;;;;;6276919;28;20519;-61
2022/08/30 06:36:51;;;;;;;24.65;20.55;;;;;;;;;;6277502;28;20048;-64
2022/08/30 06:39:52;;;;;;;23.63;19.25;;;;;;;;;;6277802;28;20060;-64
2022/08/30 06:42:56;;;;;;;24.00;19.55;;;;;;;;;;6275495;28;20315;-64
2022/08/30 06:46:01;;;;;;;23.42;18.42;;;;;;;;;;6275963;28;20059;-63
2022/08/30 06:49:04;;;;;;;20.90;17.50;;;;;;;;;;6276285;28;20052;-62
2022/08/30 06:52:06;;;;;;;21.65;16.60;;;;;;;;;;6275431;28;20278;-64
2022/08/30 06:55:09;;;;;;;20.13;17.02;;;;;;;;;;6276719;28;20359;-62
2022/08/30 06:58:12;;;;;;;24.45;17.27;;;;;;;;;;6275836;28;20258;-64
2022/08/30 07:01:15;;;;;;;18.20;16.35;;;;;;;;;;6277112;28;20053;-64
2022/08/30 07:04:16;;;;;;;26.50;17.85;;;;;;;;;;6277004;28;20057;-62
2022/08/30 07:07:18;;;;;;;18.90;16.50;;;;;;;;;;6279090;28;20049;-65
2022/08/30 07:10:20;;;;;;;20.60;17.20;;;;;;;;;;6275951;28;20332;-62
2022/08/30 07:13:23;;;;;;;20.67;17.35;;;;;;;;;;6276598;28;20056;-62
2022/08/30 07:16:25;;;;;;;21.38;16.45;;;;;;;;;;6275113;28;20048;-62
2022/08/30 07:19:27;;;;;;;19.70;16.60;;;;;;;;;;6278769;28;20060;-62
2022/08/30 07:22:29;;;;;;;20.42;16.60;;;;;;;;;;6276657;28;20053;-62
2022/08/30 07:25:31;;;;;;;19.33;16.98;;;;;;;;;;6279282;28;20094;-63
2022/08/30 07:28:37;;;;;;;19.13;16.58;;;;;;;;;;6278865;28;20053;-63
2022/08/30 07:31:38;;;;;;;20.60;17.00;;;;;;;;;;6281103;28;20231;-64
2022/08/30 07:34:40;;;;;;;17.92;15.60;;;;;;;;;;6277695;28;20045;-63
2022/08/30 07:37:42;;;;;;;17.80;14.32;;;;;;;;;;6276508;28;20263;-65
2022/08/30 07:40:43;;;;;;;17.08;14.60;;;;;;;;;;6275572;28;20060;-63
2022/08/30 07:43:47;;;;;;;17.30;14.38;;;;;;;;;;6276507;28;20056;-64
2022/08/30 07:46:48;;;;;;;20.30;14.38;;;;;;;;;;6275873;28;20056;-63
2022/08/30 07:49:50;;;;;;;17.90;14.52;;;;;;;;;;6273618;28;20320;-65
2022/08/30 07:52:51;;;;;;;16.45;14.73;;;;;;;;;;6277305;28;20057;-64
2022/08/30 07:55:53;;;;;;;14.32;12.82;;;;;;;;;;6275764;28;20249;-65
2022/08/30 07:58:56;;;;;;;16.77;13.90;;;;;;;;;;6277068;28;20098;-64
2022/08/30 08:01:58;;;;;;;15.95;13.07;;;;;;;;;;6275845;28;20053;-67
2022/08/30 08:04:59;;;;;;;17.02;14.20;;;;;;;;;;6280135;28;20298;-64
2022/08/30 08:08:01;;;;;;;16.52;14.57;;;;;;;;;;6280379;28;20335;-64
2022/08/30 08:11:06;;;;;;;24.48;14.85;;;;;;;;;;6281494;28;20110;-66
2022/08/30 08:14:10;;;;;;;14.77;13.27;;;;;;;;;;6280257;28;20053;-66
2022/08/30 08:17:11;;;;;;;19.65;13.40;;;;;;;;;;6281306;28;20051;-65
2022/08/30 08:20:13;;;;;;;12.88;11.45;;;;;;;;;;6280534;28;20048;-65
2022/08/30 08:23:15;;;;;;;17.05;14.13;;;;;;;;;;6278149;28;20327;-65
2022/08/30 08:26:17;;;;;;;15.32;11.93;;;;;;;;;;6279816;28;20056;-67
2022/08/30 08:29:20;;;;;;;18.73;12.48;;;;;;;;;;6279459;28;20044;-63
2022/08/30 08:32:22;;;;;;;17.25;13.98;;;;;;;;;;6279715;28;20052;-63
2022/08/30 08:35:24;;;;;;;19.17;13.23;;;;;;;;;;6280957;28;20052;-65
2022/08/30 08:38:25;;;;;;;14.38;11.90;;;;;;;;;;6279372;28;20053;-66
2022/08/30 08:41:37;;;;;;;13.98;11.80;;;;;;;;;;6279827;28;20057;-65
2022/08/30 08:44:49;;;;;;;14.77;11.73;;;;;;;;;;6278836;28;20898;-64
2022/08/30 08:47:55;;;;;;;16.90;12.80;;;;;;;;;;6279778;28;20128;-65
2022/08/30 08:54:22;;;;;;;11.30;9.45;;;;;;;;;;6278907;28;20120;-66
2022/08/30 08:57:24;;;;;;;12.57;10.55;;;;;;;;;;6279588;28;20183;-65
2022/08/30 09:00:28;;;;;;;17.08;11.75;;;;;;;;;;6279559;28;20059;-65
2022/08/30 09:03:31;;;;;;;16.33;11.43;;;;;;;;;;6281024;28;20053;-65
2022/08/30 09:06:47;;;;;;;14.02;10.88;;;;;;;;;;6281611;28;20063;-65
2022/08/30 09:09:49;;;;;;;13.88;12.27;;;;;;;;;;6279096;28;20152;-69
2022/08/30 09:12:50;;;;;;;11.90;10.52;;;;;;;;;;6279725;28;20102;-69
2022/08/30 09:15:55;;;;;;;15.88;9.43;;;;;;;;;;6279065;28;20094;-66
2022/08/30 09:18:57;;;;;;;12.90;9.05;;;;;;;;;;6279663;28;20068;-66
2022/08/30 09:22:00;;;;;;;14.25;9.35;;;;;;;;;;6278277;28;20045;-66
2022/08/30 09:25:04;;;;;;;14.25;9.32;;;;;;;;;;6278881;28;20053;-65
2022/08/30 09:28:11;;;;;;;14.75;9.27;;;;;;;;;;6278452;28;20053;-66
2022/08/30 09:31:22;;;;;;;12.25;10.35;;;;;;;;;;6278831;28;20051;-67
2022/08/30 09:34:23;;;;;;;12.80;9.75;;;;;;;;;;6278457;28;20065;-63
2022/08/30 09:37:29;;;;;;;13.70;10.23;;;;;;;;;;6279265;28;20350;-66
2022/08/30 09:40:37;;;;;;;13.88;10.10;;;;;;;;;;6279636;28;20059;-65
2022/08/30 09:43:38;;;;;;;11.77;9.27;;;;;;;;;;6279289;28;20063;-69
2022/08/30 09:46:47;;;;;;;16.05;10.40;;;;;;;;;;6277628;28;20270;-66
2022/08/30 09:49:49;;;;;;;10.68;8.45;;;;;;;;;;6277330;28;20044;-65
2022/08/30 09:52:59;;;;;;;13.87;9.03;;;;;;;;;;6279293;28;20051;-66
2022/08/30 09:56:06;;;;;;;8.00;7.18;;;;;;;;;;6278447;28;20475;-66
2022/08/30 09:59:14;;;;;;;6.90;5.88;;;;;;;;;;6277574;28;20056;-66
2022/08/30 10:02:34;;;;;;;10.02;7.35;;;;;;;;;;6276885;28;20056;-67
2022/08/30 10:05:45;;;;;;;8.65;6.50;;;;;;;;;;6277579;28;20052;-67
2022/08/30 10:08:54;;;;;;;8.32;5.95;;;;;;;;;;6280496;28;20041;-67
2022/08/30 10:12:01;;;;;;;8.88;5.28;;;;;;;;;;6277793;28;20409;-66
2022/08/30 10:15:07;;;;;;;9.13;5.63;;;;;;;;;;6276281;28;20048;-68
2022/08/30 10:18:13;;;;;;;9.85;6.40;;;;;;;;;;6278750;28;20045;-67
2022/08/30 10:21:18;;;;;;;8.25;5.60;;;;;;;;;;6277992;28;20064;-68
2022/08/30 10:24:21;;;;;;;10.57;6.80;;;;;;;;;;6276750;28;20056;-67
2022/08/30 10:27:26;;;;;;;7.05;6.15;;;;;;;;;;6276707;28;20049;-67
2022/08/30 10:30:30;;;;;;;8.07;5.60;;;;;;;;;;6276803;28;20111;-67
2022/08/30 10:33:37;;;;;;;9.13;5.72;;;;;;;;;;6276876;28;20044;-70
2022/08/30 10:36:43;;;;;;;6.65;5.70;;;;;;;;;;6277483;28;20095;-67
2022/08/30 10:39:47;;;;;;;8.02;6.00;;;;;;;;;;6277191;28;20112;-66
2022/08/30 10:42:49;;;;;;;9.05;5.90;;;;;;;;;;6276650;28;20044;-67
2022/08/30 10:45:53;;;;;;;9.48;6.07;;;;;;;;;;6275420;28;20114;-67
2022/08/30 10:48:56;;;;;;;9.38;5.47;;;;;;;;;;6277383;28;20053;-68
2022/08/30 10:52:12;;;;;;;7.88;5.90;;;;;;;;;;6277733;28;20217;-67
2022/08/30 10:55:16;;;;;;;10.63;6.45;;;;;;;;;;6276808;28;20287;-70
2022/08/30 10:58:18;;;;;;;9.98;7.30;;;;;;;;;;6277443;28;20045;-69
2022/08/30 11:01:31;;;;;;;10.38;6.93;;;;;;;;;;6277112;28;20103;-66
2022/08/30 11:04:59;;;;;;;9.88;6.85;;;;;;;;;;6278028;28;20079;-66
2022/08/30 11:08:08;;;;;;;8.45;6.25;;;;;;;;;;6276613;28;20565;-65
2022/08/30 11:11:17;;;;;;;8.45;5.50;;;;;;;;;;6276764;28;20057;-66
2022/08/30 11:14:20;;;;;;;9.63;6.10;;;;;;;;;;6275485;28;20094;-67
2022/08/30 11:17:26;;;;;;;11.50;7.20;;;;;;;;;;6278984;28;20057;-66
2022/08/30 11:20:32;;;;;;;7.68;6.22;;;;;;;;;;6276733;28;20270;-66
2022/08/30 11:23:34;;;;;;;8.57;6.57;;;;;;;;;;6277122;28;20282;-66
2022/08/30 11:27:01;;;;;;;8.55;5.95;;;;;;;;;;6275213;28;20084;-65
2022/08/30 11:30:41;;;;;;;9.18;7.45;;;;;;;;;;6276651;28;20057;-67
2022/08/30 11:33:45;;;;;;;11.38;6.95;;;;;;;;;;6260204;28;20099;-65
2022/08/30 11:37:06;;;;;;;9.80;6.90;;;;;;;;;;6276386;28;20052;-67
2022/08/30 11:40:11;;;;;;;7.70;6.32;;;;;;;;;;6277067;28;20278;-67
2022/08/30 11:43:46;;;;;;;7.22;6.13;;;;;;;;;;6280949;28;20041;-66
2022/08/30 11:46:48;;;;;;;8.18;6.32;;;;;;;;;;6281373;28;20037;-67
2022/08/30 11:50:01;;;;;;;9.95;5.82;;;;;;;;;;6281120;28;20181;-68
2022/08/30 11:53:10;;;;;;;8.68;6.00;;;;;;;;;;6277118;28;20332;-66
2022/08/30 11:56:20;;;;;;;11.85;6.95;;;;;;;;;;6275703;28;20044;-66
2022/08/30 11:59:27;;;;;;;11.52;8.50;;;;;;;;;;6276179;28;20687;-66
2022/08/30 12:02:50;;;;;;;11.80;7.82;;;;;;;;;;6277508;28;20044;-65
2022/08/30 12:05:57;;;;;;;12.48;9.70;;;;;;;;;;6276971;28;20045;-64
2022/08/30 12:09:00;;;;;;;11.32;10.05;;;;;;;;;;6276146;28;20103;-66
2022/08/30 12:12:04;;;;;;;17.48;10.48;;;;;;;;;;6274815;28;20053;-66
2022/08/30 12:15:06;;;;;;;12.02;10.18;;;;;;;;;;6276194;28;20056;-66
2022/08/30 12:18:28;;;;;;;15.20;9.87;;;;;;;;;;6276378;28;20051;-66
2022/08/30 12:21:31;;;;;;;14.93;11.27;;;;;;;;;;6276330;28;20106;-66
2022/08/30 12:24:38;;;;;;;9.93;8.63;;;;;;;;;;6279335;28;20064;-66
2022/08/30 12:27:40;;;;;;;12.57;9.93;;;;;;;;;;6277016;28;20053;-64
2022/08/30 12:30:42;;;;;;;17.00;11.50;;;;;;;;;;6275232;28;20040;-65
2022/08/30 12:33:48;;;;;;;14.90;10.13;;;;;;;;;;6276146;28;20328;-66
2022/08/30 12:36:57;;;;;;;14.48;11.55;;;;;;;;;;6273789;28;20068;-65
2022/08/30 12:40:08;;;;;;;14.40;12.07;;;;;;;;;;6275276;28;20107;-66
2022/08/30 12:43:23;;;;;;;15.07;10.98;;;;;;;;;;6274809;28;20090;-66
2022/08/30 12:46:25;;;;;;;11.77;10.05;;;;;;;;;;6274054;28;20045;-65
2022/08/30 12:49:28;;;;;;;16.80;10.20;;;;;;;;;;6274828;28;20053;-65
2022/08/30 12:52:35;;;;;;;13.07;10.45;;;;;;;;;;6280297;28;20240;-66
2022/08/30 12:55:51;;;;;;;13.85;10.75;;;;;;;;;;6279696;28;20429;-65
2022/08/30 12:58:54;;;;;;;16.27;10.98;;;;;;;;;;6279951;28;20040;-66
2022/08/30 13:02:07;;;;;;;14.50;10.27;;;;;;;;;;6280005;28;20057;-66
2022/08/30 13:05:34;;;;;;;16.85;10.35;;;;;;;;;;6280113;28;20061;-65
2022/08/30 13:08:38;;;;;;;15.48;10.00;;;;;;;;;;6279052;28;20332;-65
2022/08/30 13:11:40;;;;;;;12.77;10.90;;;;;;;;;;6278889;28;20057;-66
2022/08/30 13:14:43;;;;;;;11.65;9.38;;;;;;;;;;6279702;28;20114;-65
2022/08/30 13:17:45;;;;;;;20.55;12.38;;;;;;;;;;6277635;28;20103;-66
2022/08/30 13:20:47;;;;;;;16.33;11.45;;;;;;;;;;6279256;28;20057;-66
2022/08/30 13:23:49;;;;;;;14.52;10.13;;;;;;;;;;6278953;28;20108;-67
2022/08/30 13:26:53;;;;;;;12.50;11.25;;;;;;;;;;6279843;28;20056;-67
2022/08/30 13:29:55;;;;;;;12.23;10.30;;;;;;;;;;6279070;28;20413;-66
2022/08/30 13:32:57;;;;;;;11.98;9.55;;;;;;;;;;6279306;28;20061;-66
2022/08/30 13:35:58;;;;;;;15.85;10.23;;;;;;;;;;6278781;28;20302;-68
2022/08/30 13:39:01;;;;;;;11.63;10.23;;;;;;;;;;6280144;28;20041;-66
2022/08/30 13:42:04;;;;;;;17.25;9.82;;;;;;;;;;6278510;28;20478;-66
2022/08/30 13:45:07;;;;;;;13.43;9.57;;;;;;;;;;6277054;28;20115;-66
2022/08/30 13:48:09;;;;;;;12.18;9.70;;;;;;;;;;6278084;28;20091;-66
2022/08/30 13:51:11;;;;;;;10.48;8.80;;;;;;;;;;6278805;28;20052;-67
2022/08/30 13:54:13;;;;;;;11.73;9.82;;;;;;;;;;6278374;28;20049;-66
2022/08/30 13:57:17;;;;;;;13.57;8.83;;;;;;;;;;6279686;28;20057;-65
2022/08/30 14:00:20;;;;;;;14.45;9.93;;;;;;;;;;6281696;28;20539;-67
2022/08/30 14:03:22;;;;;;;12.00;10.57;;;;;;;;;;6283774;28;20059;-67
2022/08/30 14:06:23;;;;;;;12.23;9.20;;;;;;;;;;6282920;28;20048;-66
2022/08/30 14:09:25;;;;;;;10.63;7.85;;;;;;;;;;6283234;28;20049;-68
2022/08/30 14:12:28;;;;;;;17.52;9.32;;;;;;;;;;6280185;28;20052;-65
2022/08/30 14:15:30;;;;;;;10.68;9.63;;;;;;;;;;6277304;28;20290;-66
2022/08/30 14:18:31;;;;;;;11.45;9.40;;;;;;;;;;6278339;28;20095;-68
2022/08/30 14:21:33;;;;;;;15.45;11.60;;;;;;;;;;6277213;28;20107;-66
2022/08/30 14:24:35;;;;;;;10.48;9.25;;;;;;;;;;6277305;28;20346;-65
2022/08/30 14:27:38;;;;;;;13.48;9.57;;;;;;;;;;6278504;28;20111;-68
2022/08/30 14:30:39;;;;;;;11.98;9.63;;;;;;;;;;6277168;28;20045;-68
2022/08/30 14:33:41;;;;;;;10.63;8.52;;;;;;;;;;6276320;28;20049;-67
2022/08/30 14:36:44;;;;;;;7.18;6.45;;;;;;;;;;6277487;28;20045;-67
2022/08/30 14:39:46;;;;;;;13.48;8.23;;;;;;;;;;6277265;28;20048;-67
2022/08/30 14:42:49;;;;;;;10.40;8.32;;;;;;;;;;6276623;28;20064;-66
2022/08/30 14:45:50;;;;;;;10.02;8.18;;;;;;;;;;6276512;28;20061;-68
2022/08/30 14:48:52;;;;;;;8.50;7.20;;;;;;;;;;6278079;28;20057;-68
2022/08/30 14:51:54;;;;;;;12.13;7.47;;;;;;;;;;6276757;28;20053;-72
2022/08/30 14:54:57;;;;;;;9.45;7.28;;;;;;;;;;6276716;28;20263;-66
2022/08/30 14:58:01;;;;;;;8.90;8.00;;;;;;;;;;6275250;28;20049;-67
2022/08/30 15:01:05;;;;;;;13.27;9.90;;;;;;;;;;6277575;28;20322;-64
2022/08/30 15:04:08;;;;;;;12.40;9.77;;;;;;;;;;6277560;28;20055;-68
2022/08/30 15:07:10;;;;;;;9.73;7.95;;;;;;;;;;6279063;28;20053;-67
2022/08/30 15:10:13;;;;;;;11.23;8.95;;;;;;;;;;6277031;28;20045;-67
2022/08/30 15:13:16;;;;;;;9.65;8.10;;;;;;;;;;6276120;28;20045;-67
2022/08/30 15:16:20;;;;;;;14.93;8.68;;;;;;;;;;6276388;28;20052;-65
2022/08/30 15:19:21;;;;;;;13.35;10.13;;;;;;;;;;6277058;28;20068;-65
2022/08/30 15:22:23;;;;;;;11.63;7.57;;;;;;;;;;6275371;28;20048;-66
2022/08/30 15:25:25;;;;;;;13.33;10.20;;;;;;;;;;6276712;28;20091;-68
2022/08/30 15:28:28;;;;;;;11.05;8.27;;;;;;;;;;6275791;28;20049;-70
2022/08/30 15:31:30;;;;;;;13.85;9.50;;;;;;;;;;6277371;28;20045;-67
2022/08/30 15:34:32;;;;;;;10.68;8.88;;;;;;;;;;6277232;28;20051;-66
2022/08/30 15:37:34;;;;;;;16.13;11.20;;;;;;;;;;6277903;28;20052;-67
2022/08/30 15:40:35;;;;;;;9.77;8.02;;;;;;;;;;6276544;28;20045;-67
2022/08/30 15:43:39;;;;;;;12.40;6.85;;;;;;;;;;6274840;28;20061;-66
2022/08/30 15:46:43;;;;;;;9.05;7.18;;;;;;;;;;6275851;28;20053;-66
2022/08/30 15:49:44;;;;;;;6.65;5.53;;;;;;;;;;6276240;28;20041;-67
2022/08/30 15:52:46;;;;;;;8.30;6.68;;;;;;;;;;6275930;28;20091;-68
2022/08/30 15:55:47;;;;;;;8.55;6.20;;;;;;;;;;6274509;28;20057;-68
2022/08/30 15:58:51;;;;;;;10.63;8.80;;;;;;;;;;6276377;28;20378;-66
2022/08/30 16:01:52;;;;;;;10.98;8.85;;;;;;;;;;6274626;28;20146;-66
2022/08/30 16:04:54;;;;;;;14.48;9.20;;;;;;;;;;6277391;28;20056;-67
2022/08/30 16:07:55;;;;;;;10.55;8.45;;;;;;;;;;6278272;28;20056;-67
2022/08/30 16:10:57;;;;;;;9.30;7.25;;;;;;;;;;6275511;28;20053;-68
2022/08/30 16:14:00;;;;;;;9.05;6.50;;;;;;;;;;6275414;28;20049;-67
2022/08/30 16:17:02;;;;;;;10.05;8.73;;;;;;;;;;6275336;28;20053;-68
2022/08/30 16:20:05;;;;;;;11.55;8.60;;;;;;;;;;6275612;28;20061;-67
2022/08/30 16:23:06;;;;;;;9.88;7.72;;;;;;;;;;6273713;28;20362;-69
2022/08/30 16:26:08;;;;;;;12.33;9.63;;;;;;;;;;6278524;28;20041;-69
2022/08/30 16:29:12;;;;;;;21.35;10.23;;;;;;;;;;6279565;28;20111;-67
2022/08/30 16:32:14;;;;;;;11.95;9.18;;;;;;;;;;6279565;28;20332;-66
2022/08/30 16:35:15;;;;;;;11.03;9.00;;;;;;;;;;6279193;28;20070;-67
2022/08/30 16:38:17;;;;;;;12.77;9.40;;;;;;;;;;6280445;28;20091;-66
2022/08/30 16:41:20;;;;;;;9.30;7.32;;;;;;;;;;6279599;28;20389;-67
2022/08/30 16:44:23;;;;;;;11.23;7.57;;;;;;;;;;6277936;28;20049;-66
2022/08/30 16:47:24;;;;;;;11.23;8.50;;;;;;;;;;6279579;28;20094;-68
2022/08/30 16:50:26;;;;;;;11.93;8.30;;;;;;;;;;6280411;28;20374;-66
2022/08/30 16:53:28;;;;;;;13.65;9.45;;;;;;;;;;6280304;28;20049;-66
2022/08/30 16:56:30;;;;;;;11.05;8.52;;;;;;;;;;6277595;28;20045;-67
2022/08/30 16:59:33;;;;;;;;;;;;;;;;;;6279225;28;20061;-67
2022/08/30 17:02:35;;;;;;;9.52;8.45;;;;;;;;;;6280682;28;19916;-66
2022/08/30 17:05:37;;;;;;;12.48;8.52;;;;;;;;;;6279008;28;20060;-65
2022/08/30 17:08:38;;;;;;;15.03;9.60;;;;;;;;;;6281789;28;20060;-66
2022/08/30 17:11:40;;;;;;;11.05;8.27;;;;;;;;;;6277249;28;20041;-66
2022/08/30 17:14:43;;;;;;;10.88;8.60;;;;;;;;;;6279243;28;20326;-66
2022/08/30 17:17:44;;;;;;;12.73;10.55;;;;;;;;;;6278428;28;20324;-66
2022/08/30 17:20:46;;;;;;;13.90;9.73;;;;;;;;;;6278281;28;20250;-63
2022/08/30 17:23:48;;;;;;;11.85;9.25;;;;;;;;;;6277589;28;20045;-67
2022/08/30 17:26:49;;;;;;;11.68;9.80;;;;;;;;;;6272265;28;20082;-64
2022/08/30 17:29:52;;;;;;;10.68;8.35;;;;;;;;;;6271638;28;20485;-67
2022/08/30 17:32:54;;;;;;;10.60;8.02;;;;;;;;;;6271368;28;20410;-70
2022/08/30 17:35:56;;;;;;;11.10;9.27;;;;;;;;;;6270696;28;20092;-66
2022/08/30 17:38:57;;;;;;;12.25;9.85;;;;;;;;;;6271346;28;20122;-67
2022/08/30 17:41:59;;;;;;;14.05;9.30;;;;;;;;;;6277199;28;20615;-66
2022/08/30 17:45:04;;;;;;;13.10;8.32;;;;;;;;;;6275128;28;20095;-67
2022/08/30 17:48:06;;;;;;;13.70;8.32;;;;;;;;;;6276571;28;20118;-67
2022/08/30 17:51:08;;;;;;;14.13;8.73;;;;;;;;;;6277316;28;20063;-64
2022/08/30 17:54:10;;;;;;;11.07;9.32;;;;;;;;;;6274489;28;20048;-62
2022/08/30 17:57:12;;;;;;;13.77;8.10;;;;;;;;;;6275876;28;20094;-65
2022/08/30 18:00:15;;;;;;;9.20;7.78;;;;;;;;;;6275603;28;20053;-62
2022/08/30 18:03:17;;;;;;;10.70;7.72;;;;;;;;;;6278976;28;20061;-63
2022/08/30 18:06:19;;;;;;;10.80;7.60;;;;;;;;;;6278680;28;20132;-61